キンシャサ/ヌジリ国際空港の過去48時間の天気

キンシャサ/ヌジリ国際空港 (Kinshasa / N'Djili, Congo)

現在時刻: 2/6 20:29 WAT (2/6 19:29 UTC) 以下の時間は現地時間です。

過去48時間のMETAR気象情報
時間 風向 風速(m/s) 視程 気温(℃) 湿度(%) 気圧(hPa) 天気現象
6 17:00 4 8000m 33 46 1008
6 16:00 5 9000m 34 44 1008
6 15:00 西 5 9000m 33 46 1008
6 14:00 西南西 5 9000m 33 46 1009
6 13:00 西 5 9000m 32 52 1011
6 10:00 西 4 7000m 28 66 1014
6 08:00 西 4 7000m 24 78 1015
6 07:00 西 2 7000m 24 89 1014
6 06:00 静穏 0 7000m 24 89 1012
6 05:00 静穏 0 8000m 24 89 1012
6 04:00 静穏 0 8000m 25 83 1012
6 02:00 静穏 0 8000m 24 89 1013
6 01:00 静穏 0 8000m 25 83 1012
6 00:00 静穏 0 8000m 25 83 1013
5 23:00 南南西 2 7000m 27 74 1013
5 22:00 西 2 7000m 27 74 1013
5 21:00 西 2 7000m 27 74 1012
5 20:00 西 2 7000m 28 70 1010
5 19:00 西 4 7000m 29 66 1009
5 18:00 西 5 7000m 31 55 1009
5 17:00 北西 2 6000m 32 56 1008
5 16:00 4 6000m 32 52 1009
5 15:00 2 6000m 31 55 1010
5 14:00 西北西 5 6000m 31 52 1011
5 13:00 西南西 5 7000m 30 52 1011
5 10:00 西 1 7000m 26 74 1014
5 08:00 西南西 1 7000m 23 89 1014
5 07:00 静穏 0 7000m 23 89 1013
5 06:00 静穏 0 7000m 23 89 1013
5 05:00 静穏 0 9000m 23 89 1012
5 03:00 静穏 0 8000m 23 89 1012
5 02:00 南南西 3 8000m 24 83 1012
5 01:00 2 9000m 24 78 1012
5 00:00 静穏 0 9000m 24 78 1012
4 23:00 4 9000m 24 78 1012
4 22:00 南西 6 8000m 25 74 1010
4 21:00 5 7000m 28 62 1011
FZAA 061600Z 18008KT 8000 SCT024 FEW032CB 33/20 Q1008 NOSIG
FZAA 061500Z 18010KT 9000 SCT024 FEW030TCU 34/20 Q1008 NOSIG
FZAA 061400Z 27010KT 9000 SCT024 33/20 Q1008 NOSIG
FZAA 061300Z 24010KT 9000 SCT024 33/20 Q1009 NOSIG
FZAA 061200Z 27010KT 9000 SCT023 32/21 Q1011 NOSIG
FZAA 060900Z 27008KT 7000 SCT018 28/21 Q1014 NOSIG
FZAA 060700Z 27008KT 7000 SCT014 BKN080 24/20 Q1015 NOSIG
FZAA 060600Z 26004KT 7000 SCT014 FEW026CB BKN080 24/22 Q1014 NOSIG
FZAA 060500Z 00000KT 7000 SCT016 BKN080 24/22 Q1012 NOSIG
FZAA 060400Z 00000KT 8000 SCT016 BKN090 24/22 Q1012 NOSIG
FZAA 060300Z 00000KT 8000 SCT016 BKN090 25/22 Q1012 NOSIG
FZAA 060100Z 00000KT 8000 FEW016 SCT090 24/22 Q1013 NOSIG
FZAA 060000Z 00000KT 8000 NSC 25/22 Q1012 NOSIG
FZAA 052300Z 00000KT 8000 NSC 25/22 Q1013 NOSIG
FZAA 052200Z 21004KT 7000 FEW020 27/22 Q1013 NOSIG
FZAA 052100Z 27004KT 7000 FEW020 27/22 Q1013 NOSIG
FZAA 052000Z 27004KT 7000 FEW020 FEW030CB 27/22 Q1012 NOSIG
FZAA 051900Z 27004KT 7000 FEW020 FEW030CB 28/22 Q1010 NOSIG
FZAA 051800Z 26008KT 7000 FEW022 FEW030CB 29/22 Q1009 NOSIG
FZAA 051700Z 27010KT 7000 FEW024 FEW030CB 31/21 Q1009 NOSIG
FZAA 051600Z 31004KT 6000 FEW024 FEW030CB 32/22 Q1008 NOSIG
FZAA 051500Z 36008KT 6000 FEW022 SCT110 32/21 Q1009 NOSIG
FZAA 051400Z 36004KT 6000 FEW022 BKN100 31/21 Q1010 NOSIG
FZAA 051300Z 29010KT 6000 SCT022 BKN100 31/20 Q1011 NOSIG
FZAA 051200Z 25010KT 7000 SCT022 BKN100 30/19 Q1011 NOSIG
FZAA 050900Z 26002KT 7000 BKN018 26/21 Q1014 NOSIG
FZAA 050700Z 24002KT 7000 BKN016 23/21 Q1014 NOSIG
FZAA 050600Z 00000KT 7000 SCT014 BKN080 23/21 Q1013 NOSIG
FZAA 050500Z 00000KT 7000 SCT016 FEW028CB BKN080 23/21 Q1013 NOSIG
FZAA 050400Z 00000KT 9000 SCT016 FEW028CB BKN080 23/21 Q1012 NOSIG
FZAA 050200Z 00000KT 8000 SCT016 FEW028CB BKN080 23/21 Q1012 NOSIG
FZAA 050100Z 20006KT 8000 SCT016 FEW028CB BKN080 24/21 Q1012 NOSIG
FZAA 050000Z 18004KT 9000 SCT016 FEW028CB BKN080 24/20 Q1012 NOSIG
FZAA 042300Z 00000KT 9000 SCT016 FEW028CB BKN080 24/20 Q1012 NOSIG
FZAA 042200Z 18008KT 9000 SCT016 FEW028CB 24/20 Q1012 NOSIG
FZAA 042100Z 22012KT 8000 SCT016 FEW028CB 25/20 Q1010 NOSIG
FZAA 042000Z 18010KT 7000 SCT018 FEW028CB BKN080 28/20 Q1011 BECMG TS